sensor_id;sensor_type;location;lat;lon;timestamp;temperature;humidity
43143;DHT22;28750;59.842;17.584;2023-06-26T00:02:14;12.70;1.00
43143;DHT22;28750;59.842;17.584;2023-06-26T00:04:42;12.90;99.90
43143;DHT22;28750;59.842;17.584;2023-06-26T00:07:09;13.00;99.90
43143;DHT22;28750;59.842;17.584;2023-06-26T00:09:36;13.00;99.90
43143;DHT22;28750;59.842;17.584;2023-06-26T00:12:04;12.90;99.90
43143;DHT22;28750;59.842;17.584;2023-06-26T00:14:31;13.00;99.90
43143;DHT22;28750;59.842;17.584;2023-06-26T00:16:58;13.00;99.90
43143;DHT22;28750;59.842;17.584;2023-06-26T00:19:24;13.20;99.90
43143;DHT22;28750;59.842;17.584;2023-06-26T00:21:51;13.20;99.90
43143;DHT22;28750;59.842;17.584;2023-06-26T00:24:18;13.10;99.90
43143;DHT22;28750;59.842;17.584;2023-06-26T00:26:46;12.90;1.00
43143;DHT22;28750;59.842;17.584;2023-06-26T00:29:13;13.00;1.00
43143;DHT22;28750;59.842;17.584;2023-06-26T00:31:40;12.90;1.00
43143;DHT22;28750;59.842;17.584;2023-06-26T00:34:08;12.90;1.00
43143;DHT22;28750;59.842;17.584;2023-06-26T00:36:35;12.90;4.10
43143;DHT22;28750;59.842;17.584;2023-06-26T00:39:02;12.70;99.90
43143;DHT22;28750;59.842;17.584;2023-06-26T00:41:30;12.60;99.90
43143;DHT22;28750;59.842;17.584;2023-06-26T00:43:57;12.50;99.90
43143;DHT22;28750;59.842;17.584;2023-06-26T00:46:24;12.70;81.20
43143;DHT22;28750;59.842;17.584;2023-06-26T00:48:51;12.70;1.00
43143;DHT22;28750;59.842;17.584;2023-06-26T00:51:19;12.70;1.00
43143;DHT22;28750;59.842;17.584;2023-06-26T00:53:47;12.70;1.00
43143;DHT22;28750;59.842;17.584;2023-06-26T00:56:14;12.80;99.90
43143;DHT22;28750;59.842;17.584;2023-06-26T00:58:41;12.80;99.90
43143;DHT22;28750;59.842;17.584;2023-06-26T01:01:08;12.60;1.00
43143;DHT22;28750;59.842;17.584;2023-06-26T01:03:39;12.70;1.00
43143;DHT22;28750;59.842;17.584;2023-06-26T01:06:06;12.60;1.00
43143;DHT22;28750;59.842;17.584;2023-06-26T01:08:37;12.50;38.40
43143;DHT22;28750;59.842;17.584;2023-06-26T01:11:04;12.40;99.90
43143;DHT22;28750;59.842;17.584;2023-06-26T01:13:31;12.40;99.90
43143;DHT22;28750;59.842;17.584;2023-06-26T01:15:58;12.30;1.00
43143;DHT22;28750;59.842;17.584;2023-06-26T01:18:25;12.30;29.20
43143;DHT22;28750;59.842;17.584;2023-06-26T01:20:52;12.40;1.00
43143;DHT22;28750;59.842;17.584;2023-06-26T01:26:26;12.10;99.90
43143;DHT22;28750;59.842;17.584;2023-06-26T01:28:54;12.00;1.00
43143;DHT22;28750;59.842;17.584;2023-06-26T01:31:22;11.90;65.40
43143;DHT22;28750;59.842;17.584;2023-06-26T01:33:50;11.90;99.90
43143;DHT22;28750;59.842;17.584;2023-06-26T01:36:18;12.00;99.90
43143;DHT22;28750;59.842;17.584;2023-06-26T01:38:45;12.10;1.00
43143;DHT22;28750;59.842;17.584;2023-06-26T01:41:12;12.20;99.90
43143;DHT22;28750;59.842;17.584;2023-06-26T01:46:23;12.20;59.40
43143;DHT22;28750;59.842;17.584;2023-06-26T01:51:21;12.00;88.50
43143;DHT22;28750;59.842;17.584;2023-06-26T01:53:51;11.90;99.90
43143;DHT22;28750;59.842;17.584;2023-06-26T01:56:20;11.80;1.00
43143;DHT22;28750;59.842;17.584;2023-06-26T01:58:48;11.80;99.90
43143;DHT22;28750;59.842;17.584;2023-06-26T02:01:18;11.80;99.90
43143;DHT22;28750;59.842;17.584;2023-06-26T02:03:45;12.10;99.90
43143;DHT22;28750;59.842;17.584;2023-06-26T02:06:13;12.20;1.00
43143;DHT22;28750;59.842;17.584;2023-06-26T02:08:40;12.20;99.90
43143;DHT22;28750;59.842;17.584;2023-06-26T02:11:07;12.20;99.90
43143;DHT22;28750;59.842;17.584;2023-06-26T02:13:34;12.20;99.90
43143;DHT22;28750;59.842;17.584;2023-06-26T02:16:01;12.30;99.90
43143;DHT22;28750;59.842;17.584;2023-06-26T02:18:28;12.30;99.90
43143;DHT22;28750;59.842;17.584;2023-06-26T02:20:55;12.30;99.90
43143;DHT22;28750;59.842;17.584;2023-06-26T02:23:22;12.30;99.90
43143;DHT22;28750;59.842;17.584;2023-06-26T02:25:49;12.20;99.90
43143;DHT22;28750;59.842;17.584;2023-06-26T02:28:16;12.30;99.90
43143;DHT22;28750;59.842;17.584;2023-06-26T02:30:43;12.30;99.90
43143;DHT22;28750;59.842;17.584;2023-06-26T02:33:10;12.30;1.00
43143;DHT22;28750;59.842;17.584;2023-06-26T02:35:37;12.30;99.90
43143;DHT22;28750;59.842;17.584;2023-06-26T02:38:05;12.10;99.90
43143;DHT22;28750;59.842;17.584;2023-06-26T02:40:31;12.00;99.90
43143;DHT22;28750;59.842;17.584;2023-06-26T02:42:59;11.90;99.90
43143;DHT22;28750;59.842;17.584;2023-06-26T02:45:26;12.10;99.90
43143;DHT22;28750;59.842;17.584;2023-06-26T02:47:53;12.10;99.90
43143;DHT22;28750;59.842;17.584;2023-06-26T02:50:20;12.40;89.80
43143;DHT22;28750;59.842;17.584;2023-06-26T02:52:47;12.60;1.00
43143;DHT22;28750;59.842;17.584;2023-06-26T02:55:18;12.90;99.90
43143;DHT22;28750;59.842;17.584;2023-06-26T02:57:46;13.10;1.00
43143;DHT22;28750;59.842;17.584;2023-06-26T03:00:13;13.00;99.90
43143;DHT22;28750;59.842;17.584;2023-06-26T03:02:40;12.90;1.00
43143;DHT22;28750;59.842;17.584;2023-06-26T03:05:08;13.00;99.90
43143;DHT22;28750;59.842;17.584;2023-06-26T03:07:35;13.10;1.00
43143;DHT22;28750;59.842;17.584;2023-06-26T03:10:02;13.20;99.90
43143;DHT22;28750;59.842;17.584;2023-06-26T03:12:29;13.20;99.90
43143;DHT22;28750;59.842;17.584;2023-06-26T03:14:56;13.30;56.90
43143;DHT22;28750;59.842;17.584;2023-06-26T03:17:23;13.30;41.30
43143;DHT22;28750;59.842;17.584;2023-06-26T03:19:51;13.40;1.00
43143;DHT22;28750;59.842;17.584;2023-06-26T03:22:18;13.40;59.00
43143;DHT22;28750;59.842;17.584;2023-06-26T03:24:45;13.40;99.90
43143;DHT22;28750;59.842;17.584;2023-06-26T03:27:12;13.60;99.90
43143;DHT22;28750;59.842;17.584;2023-06-26T03:29:39;13.70;99.90
43143;DHT22;28750;59.842;17.584;2023-06-26T03:32:06;13.80;99.90
43143;DHT22;28750;59.842;17.584;2023-06-26T03:34:33;13.80;99.90
43143;DHT22;28750;59.842;17.584;2023-06-26T03:37:00;14.00;99.90
43143;DHT22;28750;59.842;17.584;2023-06-26T03:39:27;14.10;99.90
43143;DHT22;28750;59.842;17.584;2023-06-26T03:41:54;14.20;99.90
43143;DHT22;28750;59.842;17.584;2023-06-26T03:44:25;14.20;99.90
43143;DHT22;28750;59.842;17.584;2023-06-26T03:46:53;14.40;99.90
43143;DHT22;28750;59.842;17.584;2023-06-26T03:49:20;14.60;99.90
43143;DHT22;28750;59.842;17.584;2023-06-26T03:51:47;14.70;99.90
43143;DHT22;28750;59.842;17.584;2023-06-26T03:54:14;14.70;99.90
43143;DHT22;28750;59.842;17.584;2023-06-26T03:56:41;14.80;99.90
43143;DHT22;28750;59.842;17.584;2023-06-26T03:59:09;14.70;1.00
43143;DHT22;28750;59.842;17.584;2023-06-26T04:01:37;14.90;99.90
43143;DHT22;28750;59.842;17.584;2023-06-26T04:04:04;15.00;1.00
43143;DHT22;28750;59.842;17.584;2023-06-26T04:06:31;15.10;99.90
43143;DHT22;28750;59.842;17.584;2023-06-26T04:08:58;15.30;99.90
43143;DHT22;28750;59.842;17.584;2023-06-26T04:11:25;15.60;99.90
43143;DHT22;28750;59.842;17.584;2023-06-26T04:13:53;15.80;85.30
43143;DHT22;28750;59.842;17.584;2023-06-26T04:16:20;15.90;1.00
43143;DHT22;28750;59.842;17.584;2023-06-26T04:18:50;16.10;1.00
43143;DHT22;28750;59.842;17.584;2023-06-26T04:21:17;16.20;99.90
43143;DHT22;28750;59.842;17.584;2023-06-26T04:23:45;16.50;99.90
43143;DHT22;28750;59.842;17.584;2023-06-26T04:26:13;16.70;89.60
43143;DHT22;28750;59.842;17.584;2023-06-26T04:28:40;16.50;98.40
43143;DHT22;28750;59.842;17.584;2023-06-26T04:31:07;16.70;99.90
43143;DHT22;28750;59.842;17.584;2023-06-26T04:33:35;16.90;1.00
43143;DHT22;28750;59.842;17.584;2023-06-26T04:36:03;17.30;99.90
43143;DHT22;28750;59.842;17.584;2023-06-26T04:38:31;17.50;99.90
43143;DHT22;28750;59.842;17.584;2023-06-26T04:40:58;17.50;99.90
43143;DHT22;28750;59.842;17.584;2023-06-26T04:43:26;17.70;99.90
43143;DHT22;28750;59.842;17.584;2023-06-26T04:45:53;17.70;1.00
43143;DHT22;28750;59.842;17.584;2023-06-26T04:48:20;17.90;8.60
43143;DHT22;28750;59.842;17.584;2023-06-26T04:50:47;18.20;99.90
43143;DHT22;28750;59.842;17.584;2023-06-26T04:53:20;18.20;99.90
43143;DHT22;28750;59.842;17.584;2023-06-26T04:55:51;18.60;99.90
43143;DHT22;28750;59.842;17.584;2023-06-26T04:58:19;18.90;99.90
43143;DHT22;28750;59.842;17.584;2023-06-26T05:00:46;18.80;99.90
43143;DHT22;28750;59.842;17.584;2023-06-26T05:03:13;19.00;99.90
43143;DHT22;28750;59.842;17.584;2023-06-26T05:05:40;18.80;99.90
43143;DHT22;28750;59.842;17.584;2023-06-26T05:08:16;18.90;1.00
43143;DHT22;28750;59.842;17.584;2023-06-26T05:10:44;19.20;99.90
43143;DHT22;28750;59.842;17.584;2023-06-26T05:13:12;19.00;84.10
43143;DHT22;28750;59.842;17.584;2023-06-26T05:15:40;19.30;99.90
43143;DHT22;28750;59.842;17.584;2023-06-26T05:18:08;19.80;59.50
43143;DHT22;28750;59.842;17.584;2023-06-26T05:20:35;19.80;32.10
43143;DHT22;28750;59.842;17.584;2023-06-26T05:23:02;19.50;99.90
43143;DHT22;28750;59.842;17.584;2023-06-26T05:25:30;19.70;1.00
43143;DHT22;28750;59.842;17.584;2023-06-26T05:27:57;19.90;99.90
43143;DHT22;28750;59.842;17.584;2023-06-26T05:30:25;20.00;99.90
43143;DHT22;28750;59.842;17.584;2023-06-26T05:32:52;20.20;30.40
43143;DHT22;28750;59.842;17.584;2023-06-26T05:35:22;20.20;8.70
43143;DHT22;28750;59.842;17.584;2023-06-26T05:37:49;20.50;99.90
43143;DHT22;28750;59.842;17.584;2023-06-26T05:40:17;20.50;99.90
43143;DHT22;28750;59.842;17.584;2023-06-26T05:42:44;20.50;99.90
43143;DHT22;28750;59.842;17.584;2023-06-26T05:45:12;20.70;99.90
43143;DHT22;28750;59.842;17.584;2023-06-26T05:47:39;20.60;99.90
43143;DHT22;28750;59.842;17.584;2023-06-26T05:50:07;20.40;99.90
43143;DHT22;28750;59.842;17.584;2023-06-26T05:52:34;20.50;99.90
43143;DHT22;28750;59.842;17.584;2023-06-26T05:55:02;21.00;99.90
43143;DHT22;28750;59.842;17.584;2023-06-26T05:57:29;21.00;52.00
43143;DHT22;28750;59.842;17.584;2023-06-26T05:59:57;20.80;1.00
43143;DHT22;28750;59.842;17.584;2023-06-26T06:02:24;20.70;99.90
43143;DHT22;28750;59.842;17.584;2023-06-26T06:04:51;21.10;92.40
43143;DHT22;28750;59.842;17.584;2023-06-26T06:07:18;21.10;1.00
43143;DHT22;28750;59.842;17.584;2023-06-26T06:09:45;21.20;1.00
43143;DHT22;28750;59.842;17.584;2023-06-26T06:12:12;21.50;1.00
43143;DHT22;28750;59.842;17.584;2023-06-26T06:14:39;22.10;1.00
43143;DHT22;28750;59.842;17.584;2023-06-26T06:17:06;22.10;99.90
43143;DHT22;28750;59.842;17.584;2023-06-26T06:19:33;21.40;99.90
43143;DHT22;28750;59.842;17.584;2023-06-26T06:22:00;21.30;99.90
43143;DHT22;28750;59.842;17.584;2023-06-26T06:24:27;21.30;99.90
43143;DHT22;28750;59.842;17.584;2023-06-26T06:26:54;21.40;99.90
43143;DHT22;28750;59.842;17.584;2023-06-26T06:29:21;21.50;99.90
43143;DHT22;28750;59.842;17.584;2023-06-26T06:31:48;21.50;99.90
43143;DHT22;28750;59.842;17.584;2023-06-26T06:34:16;21.80;99.90
43143;DHT22;28750;59.842;17.584;2023-06-26T06:36:43;22.40;99.90
43143;DHT22;28750;59.842;17.584;2023-06-26T06:39:11;21.90;99.90
43143;DHT22;28750;59.842;17.584;2023-06-26T06:41:38;21.80;99.90
43143;DHT22;28750;59.842;17.584;2023-06-26T06:44:05;22.00;99.90
43143;DHT22;28750;59.842;17.584;2023-06-26T06:46:32;22.10;99.90
43143;DHT22;28750;59.842;17.584;2023-06-26T06:48:59;21.90;99.20
43143;DHT22;28750;59.842;17.584;2023-06-26T06:51:27;21.90;99.90
43143;DHT22;28750;59.842;17.584;2023-06-26T06:53:54;21.90;47.40
43143;DHT22;28750;59.842;17.584;2023-06-26T06:56:21;22.10;1.00
43143;DHT22;28750;59.842;17.584;2023-06-26T06:58:48;22.10;52.40
43143;DHT22;28750;59.842;17.584;2023-06-26T07:01:15;22.30;1.00
43143;DHT22;28750;59.842;17.584;2023-06-26T07:03:42;22.00;1.00
43143;DHT22;28750;59.842;17.584;2023-06-26T07:06:09;22.40;1.00
43143;DHT22;28750;59.842;17.584;2023-06-26T07:08:36;22.30;1.00
43143;DHT22;28750;59.842;17.584;2023-06-26T07:11:04;22.60;1.00
43143;DHT22;28750;59.842;17.584;2023-06-26T07:13:32;22.80;99.90
43143;DHT22;28750;59.842;17.584;2023-06-26T07:15:59;22.50;99.90
43143;DHT22;28750;59.842;17.584;2023-06-26T07:18:26;22.40;99.90
43143;DHT22;28750;59.842;17.584;2023-06-26T07:20:53;23.10;99.90
43143;DHT22;28750;59.842;17.584;2023-06-26T07:23:20;23.00;99.90
43143;DHT22;28750;59.842;17.584;2023-06-26T07:25:47;23.30;99.90
43143;DHT22;28750;59.842;17.584;2023-06-26T07:28:14;23.50;99.90
43143;DHT22;28750;59.842;17.584;2023-06-26T07:30:41;23.80;99.90
43143;DHT22;28750;59.842;17.584;2023-06-26T07:33:08;23.70;99.90
43143;DHT22;28750;59.842;17.584;2023-06-26T07:35:36;23.80;99.90
43143;DHT22;28750;59.842;17.584;2023-06-26T07:38:03;23.90;99.90
43143;DHT22;28750;59.842;17.584;2023-06-26T07:40:30;24.30;99.90
43143;DHT22;28750;59.842;17.584;2023-06-26T07:42:57;24.30;99.90
43143;DHT22;28750;59.842;17.584;2023-06-26T07:45:24;23.90;99.90
43143;DHT22;28750;59.842;17.584;2023-06-26T07:47:51;23.70;99.90
43143;DHT22;28750;59.842;17.584;2023-06-26T07:50:18;24.40;99.90
43143;DHT22;28750;59.842;17.584;2023-06-26T07:52:48;24.20;99.90
43143;DHT22;28750;59.842;17.584;2023-06-26T07:55:15;25.10;99.90
43143;DHT22;28750;59.842;17.584;2023-06-26T07:57:42;25.40;99.90
43143;DHT22;28750;59.842;17.584;2023-06-26T08:00:11;25.40;99.90
43143;DHT22;28750;59.842;17.584;2023-06-26T08:02:38;24.70;68.10
43143;DHT22;28750;59.842;17.584;2023-06-26T08:05:05;24.70;99.90
43143;DHT22;28750;59.842;17.584;2023-06-26T08:07:32;25.30;99.90
43143;DHT22;28750;59.842;17.584;2023-06-26T08:09:59;25.60;99.90
43143;DHT22;28750;59.842;17.584;2023-06-26T08:12:26;25.50;57.40
43143;DHT22;28750;59.842;17.584;2023-06-26T08:14:53;25.70;79.30
43143;DHT22;28750;59.842;17.584;2023-06-26T08:17:20;25.40;59.70
43143;DHT22;28750;59.842;17.584;2023-06-26T08:19:47;25.60;59.30
43143;DHT22;28750;59.842;17.584;2023-06-26T08:22:14;25.30;17.50
43143;DHT22;28750;59.842;17.584;2023-06-26T08:24:41;25.80;17.70
43143;DHT22;28750;59.842;17.584;2023-06-26T08:27:08;26.20;25.20
43143;DHT22;28750;59.842;17.584;2023-06-26T08:29:35;26.60;25.40
43143;DHT22;28750;59.842;17.584;2023-06-26T08:32:02;26.20;1.00
43143;DHT22;28750;59.842;17.584;2023-06-26T08:34:29;26.30;1.00
43143;DHT22;28750;59.842;17.584;2023-06-26T08:36:56;26.80;1.00
43143;DHT22;28750;59.842;17.584;2023-06-26T08:39:24;25.90;1.00
43143;DHT22;28750;59.842;17.584;2023-06-26T08:41:52;26.80;1.00
43143;DHT22;28750;59.842;17.584;2023-06-26T08:44:19;26.90;1.00
43143;DHT22;28750;59.842;17.584;2023-06-26T08:46:49;27.10;1.00
43143;DHT22;28750;59.842;17.584;2023-06-26T08:49:26;26.10;1.00
43143;DHT22;28750;59.842;17.584;2023-06-26T08:52:17;26.60;1.00
43143;DHT22;28750;59.842;17.584;2023-06-26T08:54:45;27.50;1.00
43143;DHT22;28750;59.842;17.584;2023-06-26T08:57:14;27.30;1.00
43143;DHT22;28750;59.842;17.584;2023-06-26T08:59:45;27.70;1.00
43143;DHT22;28750;59.842;17.584;2023-06-26T09:02:12;28.20;1.00
43143;DHT22;28750;59.842;17.584;2023-06-26T09:04:39;27.50;1.00
43143;DHT22;28750;59.842;17.584;2023-06-26T09:07:06;27.80;1.00
43143;DHT22;28750;59.842;17.584;2023-06-26T09:09:34;28.00;1.00
43143;DHT22;28750;59.842;17.584;2023-06-26T09:12:01;28.00;1.00
43143;DHT22;28750;59.842;17.584;2023-06-26T09:14:29;27.30;1.00
43143;DHT22;28750;59.842;17.584;2023-06-26T09:16:56;27.80;1.00
43143;DHT22;28750;59.842;17.584;2023-06-26T09:19:23;27.70;1.00
43143;DHT22;28750;59.842;17.584;2023-06-26T09:21:50;28.00;1.00
43143;DHT22;28750;59.842;17.584;2023-06-26T09:24:18;28.50;1.00
43143;DHT22;28750;59.842;17.584;2023-06-26T09:26:45;28.80;99.90
43143;DHT22;28750;59.842;17.584;2023-06-26T09:29:12;29.20;99.90
43143;DHT22;28750;59.842;17.584;2023-06-26T09:31:40;29.40;99.90
43143;DHT22;28750;59.842;17.584;2023-06-26T09:34:08;29.10;99.90
43143;DHT22;28750;59.842;17.584;2023-06-26T09:36:35;28.50;99.90
43143;DHT22;28750;59.842;17.584;2023-06-26T09:39:03;29.70;99.90
43143;DHT22;28750;59.842;17.584;2023-06-26T09:41:34;28.50;99.90
43143;DHT22;28750;59.842;17.584;2023-06-26T09:44:02;28.60;99.90
43143;DHT22;28750;59.842;17.584;2023-06-26T09:46:29;28.90;99.90
43143;DHT22;28750;59.842;17.584;2023-06-26T09:51:33;29.90;99.90
43143;DHT22;28750;59.842;17.584;2023-06-26T09:54:01;29.60;99.90
43143;DHT22;28750;59.842;17.584;2023-06-26T09:56:28;29.40;99.90
43143;DHT22;28750;59.842;17.584;2023-06-26T09:58:56;29.90;99.90
43143;DHT22;28750;59.842;17.584;2023-06-26T10:01:23;28.80;99.90
43143;DHT22;28750;59.842;17.584;2023-06-26T10:03:51;29.10;99.90
43143;DHT22;28750;59.842;17.584;2023-06-26T10:06:19;29.00;99.90
43143;DHT22;28750;59.842;17.584;2023-06-26T10:08:47;29.80;99.90
43143;DHT22;28750;59.842;17.584;2023-06-26T10:11:16;29.10;99.90
43143;DHT22;28750;59.842;17.584;2023-06-26T10:13:43;30.20;99.90
43143;DHT22;28750;59.842;17.584;2023-06-26T10:16:13;30.50;99.90
43143;DHT22;28750;59.842;17.584;2023-06-26T10:18:41;29.70;99.90
43143;DHT22;28750;59.842;17.584;2023-06-26T10:21:10;30.00;99.90
43143;DHT22;28750;59.842;17.584;2023-06-26T10:23:39;30.20;99.90
43143;DHT22;28750;59.842;17.584;2023-06-26T10:26:07;31.00;99.90
43143;DHT22;28750;59.842;17.584;2023-06-26T10:28:35;31.60;99.90
43143;DHT22;28750;59.842;17.584;2023-06-26T10:31:02;30.00;99.90
43143;DHT22;28750;59.842;17.584;2023-06-26T10:33:30;29.60;99.90
43143;DHT22;28750;59.842;17.584;2023-06-26T10:36:13;30.10;99.90
43143;DHT22;28750;59.842;17.584;2023-06-26T10:38:50;30.70;99.90
43143;DHT22;28750;59.842;17.584;2023-06-26T10:41:21;31.00;99.90
43143;DHT22;28750;59.842;17.584;2023-06-26T10:43:50;30.30;99.90
43143;DHT22;28750;59.842;17.584;2023-06-26T10:46:17;30.60;99.90
43143;DHT22;28750;59.842;17.584;2023-06-26T10:48:55;30.10;99.90
43143;DHT22;28750;59.842;17.584;2023-06-26T10:51:22;30.80;99.90
43143;DHT22;28750;59.842;17.584;2023-06-26T10:53:54;31.10;99.90
43143;DHT22;28750;59.842;17.584;2023-06-26T10:56:21;31.70;99.90
43143;DHT22;28750;59.842;17.584;2023-06-26T10:59:18;30.00;99.90
43143;DHT22;28750;59.842;17.584;2023-06-26T11:01:46;31.30;99.90
43143;DHT22;28750;59.842;17.584;2023-06-26T11:04:14;31.70;99.90
43143;DHT22;28750;59.842;17.584;2023-06-26T11:06:45;30.70;99.90
43143;DHT22;28750;59.842;17.584;2023-06-26T11:09:15;31.10;99.90
43143;DHT22;28750;59.842;17.584;2023-06-26T11:14:19;31.60;99.90
43143;DHT22;28750;59.842;17.584;2023-06-26T11:16:46;30.60;99.90
43143;DHT22;28750;59.842;17.584;2023-06-26T11:19:14;31.50;99.90
43143;DHT22;28750;59.842;17.584;2023-06-26T11:21:41;30.60;99.90
43143;DHT22;28750;59.842;17.584;2023-06-26T11:24:08;31.50;99.90
43143;DHT22;28750;59.842;17.584;2023-06-26T11:26:39;31.60;99.90
43143;DHT22;28750;59.842;17.584;2023-06-26T11:29:07;30.30;99.90
43143;DHT22;28750;59.842;17.584;2023-06-26T11:31:35;30.70;99.90
43143;DHT22;28750;59.842;17.584;2023-06-26T11:34:03;31.20;99.90
43143;DHT22;28750;59.842;17.584;2023-06-26T11:36:30;31.50;99.90
43143;DHT22;28750;59.842;17.584;2023-06-26T11:38:59;32.00;99.90
43143;DHT22;28750;59.842;17.584;2023-06-26T11:41:27;31.90;99.90
43143;DHT22;28750;59.842;17.584;2023-06-26T11:43:54;31.10;99.90
43143;DHT22;28750;59.842;17.584;2023-06-26T11:46:22;30.30;99.90
43143;DHT22;28750;59.842;17.584;2023-06-26T11:48:49;30.60;99.90
43143;DHT22;28750;59.842;17.584;2023-06-26T11:51:16;28.90;99.90
43143;DHT22;28750;59.842;17.584;2023-06-26T11:53:43;28.30;99.90
43143;DHT22;28750;59.842;17.584;2023-06-26T11:56:14;28.20;99.90
43143;DHT22;28750;59.842;17.584;2023-06-26T11:59:00;29.70;99.90
43143;DHT22;28750;59.842;17.584;2023-06-26T12:01:35;29.50;99.90
43143;DHT22;28750;59.842;17.584;2023-06-26T12:04:03;30.20;99.90
43143;DHT22;28750;59.842;17.584;2023-06-26T12:06:31;30.60;99.90
43143;DHT22;28750;59.842;17.584;2023-06-26T12:09:02;29.20;99.90
43143;DHT22;28750;59.842;17.584;2023-06-26T12:11:30;28.40;99.90
43143;DHT22;28750;59.842;17.584;2023-06-26T12:13:58;27.80;99.90
43143;DHT22;28750;59.842;17.584;2023-06-26T12:16:26;27.60;99.90
43143;DHT22;28750;59.842;17.584;2023-06-26T12:19:00;27.60;99.90
43143;DHT22;28750;59.842;17.584;2023-06-26T12:21:28;27.30;99.90
43143;DHT22;28750;59.842;17.584;2023-06-26T12:23:59;26.80;99.90
43143;DHT22;28750;59.842;17.584;2023-06-26T12:26:26;26.90;99.90
43143;DHT22;28750;59.842;17.584;2023-06-26T12:29:01;27.10;99.90
43143;DHT22;28750;59.842;17.584;2023-06-26T12:31:28;26.80;99.90
43143;DHT22;28750;59.842;17.584;2023-06-26T12:33:55;27.30;99.90
43143;DHT22;28750;59.842;17.584;2023-06-26T12:36:22;28.90;99.90
43143;DHT22;28750;59.842;17.584;2023-06-26T12:38:49;30.50;99.90
43143;DHT22;28750;59.842;17.584;2023-06-26T12:41:16;31.00;99.90
43143;DHT22;28750;59.842;17.584;2023-06-26T12:43:44;31.50;99.90
43143;DHT22;28750;59.842;17.584;2023-06-26T12:46:11;31.40;99.90
43143;DHT22;28750;59.842;17.584;2023-06-26T12:48:44;32.10;99.90
43143;DHT22;28750;59.842;17.584;2023-06-26T12:51:12;32.50;99.90
43143;DHT22;28750;59.842;17.584;2023-06-26T12:53:40;32.00;99.90
43143;DHT22;28750;59.842;17.584;2023-06-26T12:56:07;31.20;99.90
43143;DHT22;28750;59.842;17.584;2023-06-26T12:58:35;30.60;99.90
43143;DHT22;28750;59.842;17.584;2023-06-26T13:01:02;30.30;99.90
43143;DHT22;28750;59.842;17.584;2023-06-26T13:03:30;29.00;99.90
43143;DHT22;28750;59.842;17.584;2023-06-26T13:05:57;28.30;99.90
43143;DHT22;28750;59.842;17.584;2023-06-26T13:08:24;29.40;99.90
43143;DHT22;28750;59.842;17.584;2023-06-26T13:10:51;29.00;99.90
43143;DHT22;28750;59.842;17.584;2023-06-26T13:13:18;28.90;99.90
43143;DHT22;28750;59.842;17.584;2023-06-26T13:15:45;28.10;99.90
43143;DHT22;28750;59.842;17.584;2023-06-26T13:18:12;28.40;99.90
43143;DHT22;28750;59.842;17.584;2023-06-26T13:20:40;28.30;99.90
43143;DHT22;28750;59.842;17.584;2023-06-26T13:23:07;27.80;99.90
43143;DHT22;28750;59.842;17.584;2023-06-26T13:25:34;27.60;99.90
43143;DHT22;28750;59.842;17.584;2023-06-26T13:28:01;27.40;99.90
43143;DHT22;28750;59.842;17.584;2023-06-26T13:30:28;27.70;99.90
43143;DHT22;28750;59.842;17.584;2023-06-26T13:32:55;29.00;99.90
43143;DHT22;28750;59.842;17.584;2023-06-26T13:35:22;29.90;99.90
43143;DHT22;28750;59.842;17.584;2023-06-26T13:37:50;31.40;99.90
43143;DHT22;28750;59.842;17.584;2023-06-26T13:40:17;30.80;99.90
43143;DHT22;28750;59.842;17.584;2023-06-26T13:42:44;31.10;99.90
43143;DHT22;28750;59.842;17.584;2023-06-26T13:45:11;31.40;99.90
43143;DHT22;28750;59.842;17.584;2023-06-26T13:47:38;30.90;99.90
43143;DHT22;28750;59.842;17.584;2023-06-26T13:50:09;30.40;99.90
43143;DHT22;28750;59.842;17.584;2023-06-26T13:52:36;29.10;99.90
43143;DHT22;28750;59.842;17.584;2023-06-26T13:55:03;27.90;99.90
43143;DHT22;28750;59.842;17.584;2023-06-26T13:57:31;27.80;99.90
43143;DHT22;28750;59.842;17.584;2023-06-26T13:59:59;28.10;99.90
43143;DHT22;28750;59.842;17.584;2023-06-26T14:02:28;27.90;99.90
43143;DHT22;28750;59.842;17.584;2023-06-26T14:04:55;27.90;99.90
43143;DHT22;28750;59.842;17.584;2023-06-26T14:07:22;28.10;99.90
43143;DHT22;28750;59.842;17.584;2023-06-26T14:09:50;28.40;99.90
43143;DHT22;28750;59.842;17.584;2023-06-26T14:12:17;28.90;99.90
43143;DHT22;28750;59.842;17.584;2023-06-26T14:14:44;29.10;99.90
43143;DHT22;28750;59.842;17.584;2023-06-26T14:17:11;29.80;99.90
43143;DHT22;28750;59.842;17.584;2023-06-26T14:19:41;30.80;99.90
43143;DHT22;28750;59.842;17.584;2023-06-26T14:22:08;29.80;99.90
43143;DHT22;28750;59.842;17.584;2023-06-26T14:24:35;30.00;99.90
43143;DHT22;28750;59.842;17.584;2023-06-26T14:27:02;28.90;99.90
43143;DHT22;28750;59.842;17.584;2023-06-26T14:29:30;28.20;99.90
43143;DHT22;28750;59.842;17.584;2023-06-26T14:31:57;28.30;99.90
43143;DHT22;28750;59.842;17.584;2023-06-26T14:34:24;29.20;99.90
43143;DHT22;28750;59.842;17.584;2023-06-26T14:36:51;30.50;99.90
43143;DHT22;28750;59.842;17.584;2023-06-26T14:39:18;30.20;99.90
43143;DHT22;28750;59.842;17.584;2023-06-26T14:41:45;30.50;99.90
43143;DHT22;28750;59.842;17.584;2023-06-26T14:44:13;29.70;99.90
43143;DHT22;28750;59.842;17.584;2023-06-26T14:46:40;29.80;99.90
43143;DHT22;28750;59.842;17.584;2023-06-26T14:49:07;29.20;99.90
43143;DHT22;28750;59.842;17.584;2023-06-26T14:51:34;29.90;99.90
43143;DHT22;28750;59.842;17.584;2023-06-26T14:54:03;29.50;99.90
43143;DHT22;28750;59.842;17.584;2023-06-26T14:56:30;29.50;99.90
43143;DHT22;28750;59.842;17.584;2023-06-26T14:58:57;29.60;99.90
43143;DHT22;28750;59.842;17.584;2023-06-26T15:01:24;29.10;99.90
43143;DHT22;28750;59.842;17.584;2023-06-26T15:03:51;29.00;99.90
43143;DHT22;28750;59.842;17.584;2023-06-26T15:06:18;28.50;99.90
43143;DHT22;28750;59.842;17.584;2023-06-26T15:08:45;28.40;99.90
43143;DHT22;28750;59.842;17.584;2023-06-26T15:11:13;28.20;99.90
43143;DHT22;28750;59.842;17.584;2023-06-26T15:13:40;28.40;99.90
43143;DHT22;28750;59.842;17.584;2023-06-26T15:16:07;27.80;99.90
43143;DHT22;28750;59.842;17.584;2023-06-26T15:18:34;27.50;99.90
43143;DHT22;28750;59.842;17.584;2023-06-26T15:21:01;27.20;99.90
43143;DHT22;28750;59.842;17.584;2023-06-26T15:23:29;27.40;99.90
43143;DHT22;28750;59.842;17.584;2023-06-26T15:25:56;27.60;99.90
43143;DHT22;28750;59.842;17.584;2023-06-26T15:28:23;27.40;99.90
43143;DHT22;28750;59.842;17.584;2023-06-26T15:30:50;27.00;99.90
43143;DHT22;28750;59.842;17.584;2023-06-26T15:33:17;26.90;99.90
43143;DHT22;28750;59.842;17.584;2023-06-26T15:35:44;27.30;99.90